Time;durP1;ratioP1;P1;durP2;ratioP2;P2;SDS_P1;SDS_P2;PMS_P1;PMS_P2;Temp;Humidity;BMP_temperature;BMP_pressure;BME280_temperature;BME280_humidity;BME280_pressure;Samples;Min_cycle;Max_cycle;Signal;HPM_P1;HPM_P2
2021/08/19 00:00:35;;;;;;;6.75;5.20;;;;;;;16.28;84.50;100518.81;4938947;28;21747;-86
2021/08/19 00:03:03;;;;;;;5.97;5.18;;;;;;;16.28;84.39;100512.66;4939087;29;20150;-85
2021/08/19 00:05:30;;;;;;;5.97;5.38;;;;;;;16.29;84.09;100519.66;4938233;29;20110;-90
2021/08/19 00:07:57;;;;;;;7.90;5.35;;;;;;;16.27;84.00;100509.16;4955516;28;20062;-89
2021/08/19 00:10:23;;;;;;;8.93;5.65;;;;;;;16.28;83.73;100513.53;4935657;28;20050;-90
2021/08/19 00:12:50;;;;;;;7.13;6.07;;;;;;;16.28;83.78;100517.94;4940715;29;20061;-88
2021/08/19 00:15:17;;;;;;;5.40;4.90;;;;;;;16.27;83.92;100513.56;4938047;28;20101;-90
2021/08/19 00:17:44;;;;;;;7.20;5.13;;;;;;;16.25;83.50;100507.50;4927558;28;20051;-88
2021/08/19 00:20:11;;;;;;;8.10;4.93;;;;;;;16.27;83.21;100518.84;4931017;28;20056;-85
2021/08/19 00:22:37;;;;;;;8.35;5.40;;;;;;;16.22;83.25;100508.47;4925924;28;20070;-88
2021/08/19 00:25:06;;;;;;;6.75;4.85;;;;;;;16.23;83.08;100515.47;4942950;28;20475;-85
2021/08/19 00:27:33;;;;;;;5.45;4.68;;;;;;;16.22;83.07;100511.09;4943460;28;20042;-89
2021/08/19 00:30:00;;;;;;;6.30;4.53;;;;;;;16.21;83.14;100515.50;4911687;28;20058;-84
2021/08/19 00:32:26;;;;;;;6.95;5.10;;;;;;;16.21;82.87;100514.66;4923012;29;20043;-90
2021/08/19 00:34:53;;;;;;;5.70;4.32;;;;;;;16.22;82.95;100516.38;4922644;29;20059;-87
2021/08/19 00:37:20;;;;;;;4.88;4.28;;;;;;;16.19;82.95;100519.09;4911972;29;20054;-90
2021/08/19 00:39:46;;;;;;;7.53;5.00;;;;;;;16.17;82.75;100511.25;4924186;29;20134;-87
2021/08/19 00:42:16;;;;;;;6.53;4.97;;;;;;;16.19;83.02;100508.53;4926823;29;20051;-85
2021/08/19 00:44:47;;;;;;;7.10;5.30;;;;;;;16.20;82.80;100507.63;4925110;29;20066;-86
2021/08/19 00:47:14;;;;;;;6.47;5.07;;;;;;;16.19;82.60;100511.19;4926180;28;20077;-83
2021/08/19 00:49:45;;;;;;;4.78;4.38;;;;;;;16.22;82.50;100511.09;4928552;28;20138;-89
2021/08/19 00:52:15;;;;;;;5.88;4.65;;;;;;;16.21;82.52;100514.66;4953653;28;20522;-85
2021/08/19 00:54:43;;;;;;;6.25;4.40;;;;;;;16.23;82.78;100509.31;4943422;28;20051;-88
2021/08/19 00:57:09;;;;;;;7.43;5.45;;;;;;;16.23;82.63;100514.59;4958342;28;20052;-87
2021/08/19 00:59:43;;;;;;;9.88;5.43;;;;;;;16.21;82.67;100512.00;4959417;28;20962;-90
2021/08/19 01:02:10;;;;;;;7.55;4.55;;;;;;;16.20;82.95;100518.19;4943901;28;20043;-90
2021/08/19 01:04:39;;;;;;;5.57;4.85;;;;;;;16.19;82.82;100516.47;4922134;29;20114;-91
2021/08/19 01:07:06;;;;;;;6.03;5.22;;;;;;;16.20;82.74;100512.91;4943409;29;20098;-87
2021/08/19 01:09:35;;;;;;;8.40;5.63;;;;;;;16.20;82.89;100511.16;4941270;28;20458;-86
2021/08/19 01:12:06;;;;;;;9.02;4.95;;;;;;;16.20;82.89;100512.91;4957990;28;20063;-90
2021/08/19 01:14:34;;;;;;;5.15;4.65;;;;;;;16.22;83.09;100519.03;4942763;28;20142;-88
2021/08/19 01:17:09;;;;;;;7.28;4.93;;;;;;;16.23;83.05;100515.47;4955039;28;20044;-90
2021/08/19 01:19:38;;;;;;;7.22;4.88;;;;;;;16.24;82.95;100519.81;4941576;28;20039;-87
2021/08/19 01:22:05;;;;;;;7.03;5.65;;;;;;;16.23;83.18;100523.41;4940280;28;20045;-86
2021/08/19 01:24:31;;;;;;;9.15;6.00;;;;;;;16.22;82.97;100516.38;4938517;28;20111;-90
2021/08/19 01:26:59;;;;;;;5.43;4.80;;;;;;;16.23;83.33;100519.88;4939247;29;20063;-86
2021/08/19 01:29:25;;;;;;;7.20;4.88;;;;;;;16.22;83.23;100521.66;4939568;29;20047;-87
2021/08/19 01:32:07;;;;;;;6.78;5.03;;;;;;;16.20;83.39;100515.56;4942496;29;20054;-89
2021/08/19 01:34:34;;;;;;;5.47;4.45;;;;;;;16.18;83.76;100514.78;4941046;28;20146;-90
2021/08/19 01:37:01;;;;;;;7.68;5.15;;;;;;;16.17;83.82;100520.97;4942381;28;20047;-88
2021/08/19 01:39:28;;;;;;;7.47;5.75;;;;;;;16.16;84.05;100517.44;4939111;29;20051;-84
2021/08/19 01:41:55;;;;;;;7.90;5.45;;;;;;;16.15;84.19;100512.22;4940408;28;20051;-84
2021/08/19 01:44:22;;;;;;;5.75;5.00;;;;;;;16.12;84.15;100510.53;4925574;29;20047;-90
2021/08/19 01:47:08;;;;;;;7.95;6.13;;;;;;;16.12;84.44;100520.25;4955892;28;20146;-84
2021/08/19 01:49:38;;;;;;;6.43;5.15;;;;;;;16.10;84.62;100516.78;4940498;29;20067;-87
2021/08/19 01:52:06;;;;;;;6.50;4.47;;;;;;;16.08;84.57;100510.72;4941444;28;20506;-85
2021/08/19 01:54:33;;;;;;;7.20;4.68;;;;;;;16.06;84.63;100508.13;4959350;28;20050;-84
2021/08/19 01:57:00;;;;;;;6.30;5.32;;;;;;;16.04;85.09;100509.94;4941676;28;20126;-86
2021/08/19 01:59:30;;;;;;;6.43;5.78;;;;;;;16.02;84.98;100515.28;4927068;28;20043;-88
2021/08/19 02:02:00;;;;;;;6.35;4.93;;;;;;;16.00;84.91;100510.97;4938991;28;20078;-90
2021/08/19 02:04:27;;;;;;;7.78;6.65;;;;;;;15.95;85.18;100505.00;4956977;28;20058;-85
2021/08/19 02:06:54;;;;;;;7.53;5.40;;;;;;;15.92;85.32;100500.66;4928665;28;20054;-86
2021/08/19 02:09:20;;;;;;;7.75;5.97;;;;;;;15.91;85.43;100501.59;4941365;28;20067;-89
2021/08/19 02:11:47;;;;;;;6.43;5.32;;;;;;;15.90;85.33;100499.84;4942940;28;20051;-87
2021/08/19 02:14:14;;;;;;;9.18;5.50;;;;;;;15.90;85.20;100491.94;4959487;28;20042;-88
2021/08/19 02:16:40;;;;;;;6.03;5.35;;;;;;;15.91;84.99;100496.31;4973864;28;20050;-87
2021/08/19 02:19:07;;;;;;;10.00;5.53;;;;;;;15.93;84.78;100494.47;4944052;28;20055;-83
2021/08/19 02:21:34;;;;;;;6.68;5.50;;;;;;;15.94;84.91;100500.63;4942932;28;20073;-90
2021/08/19 02:24:00;;;;;;;7.50;5.32;;;;;;;15.93;84.65;100493.59;4943307;28;20046;-85
2021/08/19 02:26:27;;;;;;;7.80;5.40;;;;;;;15.95;84.37;100494.44;4945833;28;20059;-88
2021/08/19 02:28:53;;;;;;;6.43;5.43;;;;;;;15.96;84.37;100489.09;4973738;28;20057;-88
2021/08/19 02:31:20;;;;;;;7.82;5.93;;;;;;;15.98;84.47;100494.31;4943168;28;20133;-89
2021/08/19 02:33:46;;;;;;;10.20;5.57;;;;;;;15.94;84.51;100490.06;4938552;28;20053;-86
2021/08/19 02:36:13;;;;;;;6.70;4.95;;;;;;;15.93;84.22;100489.19;4945884;28;20058;-89
2021/08/19 02:38:40;;;;;;;8.07;4.75;;;;;;;15.93;84.12;100481.28;4960108;28;20141;-86
2021/08/19 02:41:06;;;;;;;5.57;4.22;;;;;;;15.90;84.30;100484.00;4958824;28;20097;-90
2021/08/19 02:43:36;;;;;;;6.88;5.43;;;;;;;15.89;84.20;100474.34;4942182;28;20061;-84
2021/08/19 02:46:02;;;;;;;6.28;4.22;;;;;;;15.91;84.30;100480.47;4970182;28;20221;-90
2021/08/19 02:48:29;;;;;;;7.50;5.18;;;;;;;15.94;83.83;100471.56;4960271;28;20106;-88
2021/08/19 02:50:55;;;;;;;6.03;4.80;;;;;;;15.94;83.71;100475.06;4938915;28;20054;-90
2021/08/19 02:53:22;;;;;;;8.05;5.05;;;;;;;15.97;83.58;100484.66;4924704;29;20066;-88
2021/08/19 02:55:48;;;;;;;9.45;4.53;;;;;;;15.97;83.64;100479.38;4927528;29;20150;-90
2021/08/19 02:58:15;;;;;;;6.78;5.07;;;;;;;15.98;83.55;100476.72;4924209;29;20115;-86
2021/08/19 03:00:41;;;;;;;5.35;4.53;;;;;;;15.96;83.48;100477.69;4926656;28;20086;-90
2021/08/19 03:03:08;;;;;;;5.47;4.38;;;;;;;15.96;83.51;100473.25;4957697;28;20352;-88
2021/08/19 03:05:35;;;;;;;7.13;4.72;;;;;;;15.97;83.56;100468.81;4942967;28;20137;-86
2021/08/19 03:08:01;;;;;;;6.43;4.97;;;;;;;15.97;83.40;100468.81;4944699;28;20050;-89
2021/08/19 03:10:28;;;;;;;5.90;4.82;;;;;;;15.96;83.20;100467.97;4938026;28;20051;-84
2021/08/19 03:12:54;;;;;;;4.82;3.95;;;;;;;15.98;83.07;100475.84;4943378;28;20039;-87
2021/08/19 03:15:21;;;;;;;5.82;4.20;;;;;;;15.97;83.13;100479.38;4943983;28;20054;-88
2021/08/19 03:17:48;;;;;;;6.40;4.47;;;;;;;15.97;83.15;100474.09;4940871;28;20498;-85
2021/08/19 03:20:14;;;;;;;8.20;5.00;;;;;;;15.97;83.19;100471.47;4940419;28;20114;-84
2021/08/19 03:22:41;;;;;;;6.20;4.75;;;;;;;15.96;83.30;100470.59;4954076;28;20163;-85
2021/08/19 03:25:10;;;;;;;4.32;3.75;;;;;;;15.93;83.19;100464.56;4955370;28;20455;-87
2021/08/19 03:27:37;;;;;;;5.80;4.80;;;;;;;15.94;83.00;100463.66;4957275;28;20046;-84
2021/08/19 03:30:05;;;;;;;11.75;7.13;;;;;;;15.93;83.32;100460.16;4942912;28;20466;-90
2021/08/19 03:32:32;;;;;;;6.15;4.70;;;;;;;15.95;83.12;100468.88;4943670;28;20046;-89
2021/08/19 03:34:58;;;;;;;6.50;4.78;;;;;;;15.95;82.97;100463.59;4940877;28;20054;-87
2021/08/19 03:37:27;;;;;;;6.07;5.38;;;;;;;15.94;82.97;100463.66;4930692;28;20149;-87
2021/08/19 03:39:54;;;;;;;5.70;5.03;;;;;;;15.94;83.14;100471.56;4942344;28;20050;-88
2021/08/19 03:42:20;;;;;;;5.82;4.60;;;;;;;15.92;83.49;100466.34;4940777;28;20134;-89
2021/08/19 03:44:48;;;;;;;7.20;5.13;;;;;;;15.92;83.34;100470.75;4943439;28;20867;-90
2021/08/19 03:47:15;;;;;;;9.02;5.28;;;;;;;15.90;83.43;100473.44;4940674;28;20042;-86
2021/08/19 03:49:41;;;;;;;5.38;4.75;;;;;;;15.91;83.52;100471.69;4942418;28;20082;-88
2021/08/19 03:52:08;;;;;;;6.35;4.78;;;;;;;15.90;83.72;100470.81;4964172;28;20086;-84
2021/08/19 03:54:35;;;;;;;4.50;4.10;;;;;;;15.90;83.68;100467.31;4955363;28;20113;-88
2021/08/19 03:57:02;;;;;;;7.53;5.47;;;;;;;15.91;83.91;100475.19;4972092;28;20141;-89
2021/08/19 03:59:28;;;;;;;9.10;5.57;;;;;;;15.90;83.89;100476.09;4955714;28;20414;-87
2021/08/19 04:01:55;;;;;;;5.82;5.18;;;;;;;15.88;84.11;100481.44;4955997;28;20047;-85
2021/08/19 04:04:22;;;;;;;9.68;4.93;;;;;;;15.84;84.26;100474.53;4954856;28;20047;-88
2021/08/19 04:06:48;;;;;;;6.00;5.28;;;;;;;15.85;84.43;100468.34;4956287;28;20143;-87
2021/08/19 04:09:15;;;;;;;7.60;5.10;;;;;;;15.87;84.74;100473.56;4962031;28;20055;-83
2021/08/19 04:11:42;;;;;;;7.28;5.32;;;;;;;15.87;84.73;100474.41;4974637;28;20062;-87
2021/08/19 04:14:08;;;;;;;7.32;6.25;;;;;;;15.86;84.85;100471.84;4960968;28;20824;-85
2021/08/19 04:16:35;;;;;;;8.40;6.07;;;;;;;15.84;84.97;100482.44;4958857;28;20102;-86
2021/08/19 04:19:01;;;;;;;12.32;5.93;;;;;;;15.86;85.14;100487.66;4941406;28;20062;-88
2021/08/19 04:21:28;;;;;;;8.25;6.00;;;;;;;15.86;85.21;100479.75;4959742;28;20110;-89
2021/08/19 04:23:55;;;;;;;8.15;5.65;;;;;;;15.88;85.42;100489.34;4938299;28;20058;-84
2021/08/19 04:26:21;;;;;;;10.77;5.68;;;;;;;15.87;85.47;100477.06;4974385;28;20073;-86
2021/08/19 04:28:48;;;;;;;8.35;6.05;;;;;;;15.88;85.33;100483.22;4956769;28;20058;-85
2021/08/19 04:31:14;;;;;;;8.15;5.90;;;;;;;15.88;85.87;100481.44;4957244;28;20513;-84
2021/08/19 04:33:41;;;;;;;10.10;6.47;;;;;;;15.88;85.29;100486.72;4958854;28;20047;-83
2021/08/19 04:36:07;;;;;;;8.52;6.07;;;;;;;15.87;85.41;100492.88;4972658;28;20054;-86
2021/08/19 04:38:34;;;;;;;8.23;6.10;;;;;;;15.87;85.66;100497.31;4958833;28;20625;-84
2021/08/19 04:41:01;;;;;;;7.85;5.95;;;;;;;15.88;85.96;100493.78;4959670;28;20051;-90
2021/08/19 04:43:29;;;;;;;7.70;6.28;;;;;;;15.86;86.12;100499.09;4957398;28;20050;-89
2021/08/19 04:45:58;;;;;;;7.53;6.60;;;;;;;15.86;86.15;100490.31;4956735;28;20474;-83
2021/08/19 04:48:25;;;;;;;10.43;7.07;;;;;;;15.86;86.35;100500.88;4960899;28;20134;-86
2021/08/19 04:50:52;;;;;;;8.40;5.35;;;;;;;15.84;86.28;100494.81;4923005;28;1048745;-89
2021/08/19 04:53:18;;;;;;;9.25;6.50;;;;;;;15.84;86.34;100493.00;4945737;28;20054;-84
2021/08/19 04:55:46;;;;;;;8.30;6.57;;;;;;;15.86;86.49;100495.59;4946747;28;20051;-85
2021/08/19 04:58:13;;;;;;;8.35;6.10;;;;;;;15.87;86.54;100498.16;4949225;28;20054;-89
2021/08/19 05:00:39;;;;;;;11.27;6.75;;;;;;;15.88;86.49;100506.97;4946760;28;20131;-87
2021/08/19 05:03:06;;;;;;;11.02;7.38;;;;;;;15.88;86.75;100501.69;4947285;28;20094;-90
2021/08/19 05:05:32;;;;;;;10.70;6.55;;;;;;;15.89;86.56;100503.41;4941328;28;20058;-86
2021/08/19 05:07:59;;;;;;;11.73;7.15;;;;;;;15.88;86.55;100496.41;4971811;28;20054;-89
2021/08/19 05:10:26;;;;;;;8.93;6.82;;;;;;;15.93;86.46;100502.41;4947815;28;20051;-87
2021/08/19 05:12:52;;;;;;;9.63;7.28;;;;;;;15.95;86.29;100499.72;4960655;28;20046;-90
2021/08/19 05:15:20;;;;;;;14.05;6.22;;;;;;;15.99;86.28;100501.31;4933758;28;20058;-88
2021/08/19 05:17:47;;;;;;;10.02;7.13;;;;;;;16.02;86.36;100501.22;4945220;28;20058;-88
2021/08/19 05:20:15;;;;;;;7.65;6.85;;;;;;;16.03;86.18;100501.19;4963499;28;20050;-83
2021/08/19 05:22:41;;;;;;;9.77;7.40;;;;;;;16.03;86.33;100506.47;4942314;28;20118;-85
2021/08/19 05:25:08;;;;;;;11.15;6.78;;;;;;;15.98;86.62;100494.31;4947709;28;20181;-87
2021/08/19 05:27:35;;;;;;;8.65;7.15;;;;;;;15.95;87.31;100503.19;4930726;28;20059;-84
2021/08/19 05:30:01;;;;;;;11.13;7.43;;;;;;;15.96;87.00;100498.78;4944619;28;20049;-86
2021/08/19 05:32:28;;;;;;;9.60;7.47;;;;;;;15.95;87.12;100505.00;4944722;28;20050;-86
2021/08/19 05:34:56;;;;;;;11.48;7.93;;;;;;;15.93;87.08;100510.31;4959511;28;20096;-87
2021/08/19 05:37:23;;;;;;;9.27;7.25;;;;;;;15.96;87.25;100512.00;4948444;28;20039;-84
2021/08/19 05:39:50;;;;;;;8.65;7.75;;;;;;;16.00;86.83;100509.19;4948268;28;20133;-89
2021/08/19 05:42:17;;;;;;;9.30;7.60;;;;;;;16.06;86.69;100512.53;4944644;28;20094;-85
2021/08/19 05:44:43;;;;;;;10.93;7.43;;;;;;;16.10;86.42;100515.03;4946521;28;20556;-88
2021/08/19 05:47:10;;;;;;;9.52;7.00;;;;;;;16.14;86.16;100523.69;4942877;28;20050;-86
2021/08/19 05:49:41;;;;;;;10.23;7.38;;;;;;;16.18;86.25;100528.81;4944953;28;20042;-88
2021/08/19 05:52:08;;;;;;;8.98;7.05;;;;;;;16.24;85.94;100519.81;4933398;28;20532;-86
2021/08/19 05:54:35;;;;;;;11.13;7.38;;;;;;;16.32;85.68;100522.19;4959906;28;20459;-88
2021/08/19 05:57:03;;;;;;;9.48;6.47;;;;;;;16.37;85.34;100529.06;4951048;28;20042;-88
2021/08/19 05:59:29;;;;;;;10.93;6.40;;;;;;;16.42;85.27;100531.53;4928064;28;20142;-89
2021/08/19 06:01:56;;;;;;;8.70;7.00;;;;;;;16.42;85.19;100533.31;4946038;28;20054;-85
2021/08/19 06:04:23;;;;;;;9.38;5.93;;;;;;;16.41;85.10;100532.44;4943422;28;20070;-88
2021/08/19 06:06:49;;;;;;;8.77;7.53;;;;;;;16.43;85.19;100540.34;4932278;28;20640;-88
2021/08/19 06:09:16;;;;;;;9.38;7.00;;;;;;;16.36;85.60;100537.91;4949266;28;20046;-90
2021/08/19 06:11:43;;;;;;;9.23;6.60;;;;;;;16.35;85.83;100535.31;4932274;28;20141;-84
2021/08/19 06:14:10;;;;;;;10.50;7.00;;;;;;;16.38;85.74;100543.13;4961833;28;20054;-88
2021/08/19 06:16:36;;;;;;;8.80;6.97;;;;;;;16.41;85.04;100545.63;4933894;28;20077;-87
2021/08/19 06:19:03;;;;;;;10.75;7.43;;;;;;;16.43;85.16;100538.53;4928858;28;20066;-86
2021/08/19 06:21:30;;;;;;;12.30;7.25;;;;;;;16.44;85.28;100544.66;4929145;28;20055;-87
2021/08/19 06:23:56;;;;;;;10.90;7.72;;;;;;;16.44;85.21;100549.97;4927727;28;20051;-90
2021/08/19 06:26:23;;;;;;;10.27;7.03;;;;;;;16.44;85.17;100552.59;4932912;28;20055;-85
2021/08/19 06:28:49;;;;;;;9.63;7.22;;;;;;;16.46;85.27;100551.63;4929272;28;20102;-88
2021/08/19 06:31:16;;;;;;;7.45;6.35;;;;;;;16.46;85.29;100551.63;4913518;28;20075;-83
2021/08/19 06:33:43;;;;;;;11.45;7.38;;;;;;;16.41;85.31;100550.06;4927350;28;20043;-89
2021/08/19 06:36:09;;;;;;;12.60;7.80;;;;;;;16.40;85.52;100545.69;4929942;28;20126;-88
2021/08/19 06:38:36;;;;;;;8.68;7.20;;;;;;;16.44;85.34;100552.59;4943628;28;20583;-87
2021/08/19 06:41:03;;;;;;;8.30;6.97;;;;;;;16.47;85.00;100550.72;4930390;28;20043;-86
2021/08/19 06:43:29;;;;;;;8.60;6.88;;;;;;;16.51;84.96;100559.41;4913602;28;20063;-85
2021/08/19 06:45:56;;;;;;;11.55;6.75;;;;;;;16.53;84.78;100553.16;4936354;28;20133;-89
2021/08/19 06:48:23;;;;;;;10.23;7.25;;;;;;;16.55;84.70;100561.03;4946828;28;20053;-87
2021/08/19 06:50:49;;;;;;;7.25;6.32;;;;;;;16.56;84.19;100557.47;4948321;28;20050;-88
2021/08/19 06:53:16;;;;;;;9.10;6.80;;;;;;;16.59;84.26;100567.06;4941863;28;20047;-86
2021/08/19 06:55:43;;;;;;;7.30;5.88;;;;;;;16.63;84.23;100563.41;4942138;28;21171;-85
2021/08/19 06:58:09;;;;;;;11.20;6.68;;;;;;;16.59;84.32;100569.72;4942086;28;20117;-87
2021/08/19 07:00:36;;;;;;;7.00;6.10;;;;;;;16.59;84.17;100564.44;4941565;28;20039;-86
2021/08/19 07:03:03;;;;;;;7.78;6.93;;;;;;;16.57;84.15;100564.47;4947275;28;20031;-87
2021/08/19 07:05:30;;;;;;;7.70;6.03;;;;;;;16.56;84.24;100564.50;4941393;28;20069;-84
2021/08/19 07:07:59;;;;;;;7.60;6.65;;;;;;;16.54;84.23;100568.09;4958750;28;20117;-89
2021/08/19 07:10:26;;;;;;;8.38;6.15;;;;;;;16.54;83.88;100568.09;4957258;28;20109;-86
2021/08/19 07:12:52;;;;;;;8.75;6.90;;;;;;;16.58;84.16;100571.47;4942877;28;20446;-89
2021/08/19 07:15:19;;;;;;;7.90;7.05;;;;;;;16.56;84.01;100570.69;4940289;28;20054;-90
2021/08/19 07:17:46;;;;;;;9.10;5.85;;;;;;;16.58;84.26;100578.56;4942936;28;20058;-87
2021/08/19 07:20:13;;;;;;;8.30;5.80;;;;;;;16.52;84.94;100572.56;4928148;28;20043;-89
2021/08/19 07:22:44;;;;;;;11.73;7.18;;;;;;;16.49;85.59;100583.25;4956818;28;20066;-86
2021/08/19 07:25:16;;;;;;;9.07;6.90;;;;;;;16.44;86.55;100585.19;4941445;28;20050;-85
2021/08/19 07:27:43;;;;;;;10.52;6.95;;;;;;;16.29;87.30;100581.28;4940613;28;20051;-85
2021/08/19 07:30:11;;;;;;;8.40;6.47;;;;;;;16.21;88.16;100585.97;4939459;28;20156;-85
2021/08/19 07:32:38;;;;;;;9.43;7.32;;;;;;;16.21;89.10;100585.97;4939540;28;20055;-85
2021/08/19 07:35:06;;;;;;;8.38;7.40;;;;;;;16.17;89.55;100590.47;4930593;28;20050;-84
2021/08/19 07:37:53;;;;;;;10.40;7.90;;;;;;;16.14;91.13;100587.06;4945348;28;20047;-91
2021/08/19 07:40:25;;;;;;;11.50;8.43;;;;;;;16.10;91.32;100588.97;4947733;28;20070;-84
2021/08/19 07:42:52;;;;;;;12.57;8.15;;;;;;;16.07;91.58;100596.97;4960799;28;20055;-87
2021/08/19 07:45:22;;;;;;;11.45;8.85;;;;;;;15.99;92.53;100602.50;4948986;28;20050;-88
2021/08/19 07:47:49;;;;;;;10.35;8.52;;;;;;;16.00;92.35;100601.59;4932342;28;20078;-90
2021/08/19 07:50:17;;;;;;;8.82;6.85;;;;;;;16.02;92.59;100597.13;4948918;28;20057;-84
2021/08/19 07:52:43;;;;;;;9.65;7.55;;;;;;;16.09;92.59;100600.44;4951997;28;20363;-91
2021/08/19 07:55:12;;;;;;;10.45;8.30;;;;;;;16.11;92.98;100603.03;4963729;28;20529;-91
2021/08/19 07:57:50;;;;;;;8.90;7.93;;;;;;;16.08;92.94;100609.25;4937042;28;20054;-87
2021/08/19 08:00:29;;;;;;;9.30;7.78;;;;;;;16.03;92.78;100604.16;4955248;28;20066;-85
2021/08/19 08:03:24;;;;;;;13.80;8.80;;;;;;;16.06;92.96;100602.31;4960142;28;20058;-85
2021/08/19 08:05:51;;;;;;;14.40;8.52;;;;;;;16.18;92.26;100599.28;4947419;28;20047;-85
2021/08/19 08:08:28;;;;;;;12.65;8.43;;;;;;;16.31;92.31;100605.00;4965392;28;20058;-87
2021/08/19 08:11:08;;;;;;;8.38;6.60;;;;;;;16.46;91.49;100606.25;4962064;28;20608;-86
2021/08/19 08:13:40;;;;;;;9.35;6.85;;;;;;;16.54;90.63;100598.94;4960880;28;20049;-88
2021/08/19 08:16:07;;;;;;;8.10;6.40;;;;;;;16.63;90.12;100613.59;4935672;28;20046;-86
2021/08/19 08:18:34;;;;;;;7.80;6.60;;;;;;;16.78;89.73;100604.25;4948290;28;20921;-86
2021/08/19 08:21:02;;;;;;;8.93;7.45;;;;;;;16.93;88.71;100613.47;4948416;28;20047;-85
2021/08/19 08:23:35;;;;;;;9.45;6.72;;;;;;;16.99;88.41;100606.19;4946325;28;20050;-88
2021/08/19 08:26:02;;;;;;;8.85;7.35;;;;;;;17.01;87.79;100614.03;4948376;28;20038;-90
2021/08/19 08:28:31;;;;;;;9.02;7.00;;;;;;;17.05;87.35;100614.81;4948966;28;20047;-89
2021/08/19 08:31:01;;;;;;;8.15;6.50;;;;;;;17.08;87.21;100614.69;4945192;28;20516;-86
2021/08/19 08:33:28;;;;;;;13.43;7.05;;;;;;;17.16;86.86;100617.94;4959649;28;20078;-88
2021/08/19 08:35:54;;;;;;;10.15;8.38;;;;;;;17.24;85.66;100612.34;4955003;28;20928;-88
2021/08/19 08:38:24;;;;;;;10.18;7.60;;;;;;;17.31;85.10;100612.06;4932104;28;20070;-87
2021/08/19 08:40:52;;;;;;;9.60;7.63;;;;;;;17.42;84.52;100614.28;4962777;28;20050;-88
2021/08/19 08:43:21;;;;;;;9.13;7.25;;;;;;;17.48;84.00;100608.78;4928758;28;20078;-88
2021/08/19 08:45:50;;;;;;;9.43;7.25;;;;;;;17.64;83.86;100613.47;4961336;28;22698;-85
2021/08/19 08:48:24;;;;;;;10.60;7.10;;;;;;;17.76;82.58;100612.97;4932255;28;20042;-87
2021/08/19 08:50:56;;;;;;;7.63;6.93;;;;;;;17.85;81.94;100617.06;4945088;28;20074;-90
2021/08/19 08:53:23;;;;;;;9.63;8.02;;;;;;;17.87;81.25;100620.50;4960898;28;20093;-87
2021/08/19 08:55:51;;;;;;;12.73;7.90;;;;;;;17.82;81.40;100618.03;4944905;28;20063;-85
2021/08/19 08:58:18;;;;;;;10.40;7.80;;;;;;;17.75;80.79;100621.84;4946931;28;20077;-83
2021/08/19 09:00:47;;;;;;;11.73;8.90;;;;;;;17.67;80.71;100624.78;4944534;28;20162;-87
2021/08/19 09:03:17;;;;;;;11.45;9.23;;;;;;;17.66;81.52;100632.78;4949517;28;20566;-89
2021/08/19 09:05:47;;;;;;;12.45;9.10;;;;;;;17.73;80.31;100628.13;4945418;28;20093;-88
2021/08/19 09:08:17;;;;;;;9.68;7.93;;;;;;;17.82;79.94;100626.00;4948436;28;20191;-85
2021/08/19 09:10:47;;;;;;;13.18;8.32;;;;;;;17.88;79.52;100631.97;4946601;28;20055;-86
2021/08/19 09:13:23;;;;;;;10.27;8.55;;;;;;;17.93;79.78;100632.69;4943055;28;20047;-90
2021/08/19 09:15:52;;;;;;;10.07;9.07;;;;;;;17.94;79.07;100631.72;4925706;28;20081;-89
2021/08/19 09:18:34;;;;;;;11.23;8.70;;;;;;;17.85;78.87;100632.94;4926140;28;20058;-84
2021/08/19 09:21:02;;;;;;;9.73;8.43;;;;;;;17.75;79.59;100629.78;4929156;29;20051;-88
2021/08/19 09:23:29;;;;;;;10.27;7.65;;;;;;;17.67;79.92;100632.72;4923512;28;20058;-85
2021/08/19 09:25:59;;;;;;;11.52;7.45;;;;;;;17.62;80.40;100634.69;4945605;28;20138;-86
2021/08/19 09:28:29;;;;;;;8.95;8.05;;;;;;;17.61;79.92;100632.09;4930310;28;20054;-88
2021/08/19 09:31:09;;;;;;;9.25;7.05;;;;;;;17.63;80.30;100635.56;4932663;28;20419;-88
2021/08/19 09:33:39;;;;;;;8.32;7.43;;;;;;;17.57;79.70;100631.34;4929599;28;20036;-88
2021/08/19 09:36:07;;;;;;;9.70;7.78;;;;;;;17.55;79.54;100633.22;4944073;28;20042;-85
2021/08/19 09:38:40;;;;;;;7.75;7.05;;;;;;;17.51;79.76;100632.47;4927505;28;20051;-85
2021/08/19 09:41:18;;;;;;;9.45;7.10;;;;;;;17.50;80.06;100633.38;4929244;28;20051;-87
2021/08/19 09:43:53;;;;;;;8.15;7.10;;;;;;;17.50;80.35;100635.19;4923770;28;20051;-85
2021/08/19 09:46:31;;;;;;;10.32;7.15;;;;;;;17.53;79.60;100635.94;4914964;28;20044;-90
2021/08/19 09:49:00;;;;;;;8.75;6.97;;;;;;;17.59;79.81;100641.91;4940003;28;20087;-83
2021/08/19 09:51:27;;;;;;;8.88;7.38;;;;;;;17.61;79.45;100635.63;4935606;28;20066;-87
2021/08/19 09:53:57;;;;;;;9.82;7.95;;;;;;;17.62;79.02;100633.84;4946697;28;20509;-90
2021/08/19 09:56:36;;;;;;;7.60;6.43;;;;;;;17.64;78.88;100629.38;4944520;28;20047;-88
2021/08/19 09:59:27;;;;;;;9.68;7.97;;;;;;;17.69;78.50;100622.06;4947321;28;20051;-88
2021/08/19 10:01:58;;;;;;;8.73;7.82;;;;;;;17.78;78.66;100624.38;4942796;28;20062;-84
2021/08/19 10:04:28;;;;;;;8.02;7.00;;;;;;;17.97;77.77;100619.22;4943621;28;20046;-86
2021/08/19 10:06:57;;;;;;;10.68;7.68;;;;;;;18.21;77.24;100618.28;4944203;28;20057;-86
2021/08/19 10:09:25;;;;;;;11.18;8.23;;;;;;;18.40;76.16;100613.09;4944791;28;20466;-88
2021/08/19 10:11:54;;;;;;;10.90;7.90;;;;;;;18.59;75.51;100618.47;4939720;28;20109;-89
2021/08/19 10:14:30;;;;;;;11.65;6.97;;;;;;;18.77;75.21;100616.81;4941177;28;20046;-87
2021/08/19 10:16:58;;;;;;;11.20;9.05;;;;;;;18.89;73.89;100607.44;4944289;28;20050;-90
2021/08/19 10:19:41;;;;;;;11.90;8.55;;;;;;;18.92;73.98;100613.50;4957416;28;20039;-88
2021/08/19 10:22:16;;;;;;;12.73;9.13;;;;;;;18.98;73.92;100607.94;4944562;28;20053;-89
2021/08/19 10:24:47;;;;;;;9.13;7.90;;;;;;;19.01;74.01;100613.09;4925937;28;20455;-89
2021/08/19 10:27:22;;;;;;;9.50;7.40;;;;;;;19.04;73.94;100605.94;4943142;28;20153;-86
2021/08/19 10:30:07;;;;;;;10.20;8.30;;;;;;;19.00;73.95;100607.88;4945089;28;20050;-83
2021/08/19 10:32:38;;;;;;;9.52;7.40;;;;;;;18.92;74.25;100615.31;4953948;28;20117;-86
2021/08/19 10:35:07;;;;;;;11.50;8.05;;;;;;;18.84;74.61;100610.31;4942068;28;20430;-88
2021/08/19 10:37:46;;;;;;;6.18;5.57;;;;;;;18.78;75.00;100610.59;4937314;28;20051;-88
2021/08/19 10:40:22;;;;;;;10.13;8.77;;;;;;;18.73;75.46;100615.22;4958450;28;20055;-87
2021/08/19 10:42:55;;;;;;;15.23;10.40;;;;;;;18.56;77.11;100613.31;4939278;28;20051;-83
2021/08/19 10:45:27;;;;;;;12.70;10.40;;;;;;;18.32;79.25;100614.28;4955270;28;20137;-91
2021/08/19 10:48:09;;;;;;;14.05;11.30;;;;;;;18.10;81.88;100611.66;4956809;28;20314;-86
2021/08/19 10:50:38;;;;;;;12.60;10.73;;;;;;;17.98;82.07;100613.03;4958914;28;20050;-85
2021/08/19 10:53:22;;;;;;;11.60;9.80;;;;;;;17.98;82.80;100615.66;4940605;28;20039;-85
2021/08/19 10:55:55;;;;;;;16.65;12.35;;;;;;;17.99;83.25;100616.50;4906543;28;20516;-88
2021/08/19 10:58:37;;;;;;;16.00;12.40;;;;;;;18.01;82.88;100607.59;4924794;28;20066;-84
2021/08/19 11:01:17;;;;;;;12.43;10.85;;;;;;;18.11;82.85;100613.38;4941021;28;20047;-87
2021/08/19 11:03:47;;;;;;;15.75;12.15;;;;;;;18.17;82.81;100610.50;4941134;28;20039;-83
2021/08/19 11:06:18;;;;;;;18.65;12.70;;;;;;;18.19;83.17;100608.63;4936266;28;20047;-89
2021/08/19 11:08:48;;;;;;;14.30;12.73;;;;;;;18.17;83.02;100599.00;4942379;28;20055;-88
2021/08/19 11:11:30;;;;;;;16.52;13.30;;;;;;;18.21;83.31;100599.75;4942181;28;20646;-88
2021/08/19 11:14:17;;;;;;;18.73;12.23;;;;;;;18.18;84.01;100603.38;4954549;28;20054;-86
2021/08/19 11:16:55;;;;;;;15.43;11.88;;;;;;;18.30;83.18;100602.00;4941039;28;20050;-90
2021/08/19 11:19:25;;;;;;;14.98;11.65;;;;;;;18.46;82.52;100605.75;4937985;28;20138;-84
2021/08/19 11:22:07;;;;;;;15.40;12.82;;;;;;;18.74;81.45;100609.84;4925514;28;20054;-93
2021/08/19 11:24:35;;;;;;;14.07;11.85;;;;;;;19.08;80.14;100603.06;4940979;28;20063;-88
2021/08/19 11:27:10;;;;;;;15.23;11.25;;;;;;;19.41;77.84;100599.81;4941407;28;20491;-86
2021/08/19 11:29:44;;;;;;;12.98;11.10;;;;;;;19.56;77.21;100592.91;4943909;28;20047;-87